Terminal Aerodrome Forecast
Issued by NWS

Home | Current Version | Previous Version | Text Only | Print | Product List | Glossary On
Versions: 1 2 3 4 5 6 7 8 9 10 11 12 13 14 15 16 17 18 19 20 21 22 23 24 25 26 27 28 29
000
FTUS46 KMTR 280520
TAFSFO
TAF
KSFO 280520Z 2806/2912 27010KT P6SM SCT016
     FM280800 25006KT P6SM OVC014
     FM281100 26005KT P6SM OVC012
     FM281800 VRB06KT P6SM FEW016
     FM282100 29016G22KT P6SM SKC
     FM290400 29012KT P6SM FEW010=

USA.gov is the U.S. government's official web portal to all federal, state and local government web resources and services.